Share

Adrian, MN

11:03 AM CDT on April 23, 2014 (GMT -0500)
Luverne (KLYV) Elev 1430 ft | 43.62 °N, 96.21 °W | Change Station
Active Advisory: Wind Advisory Active Notice: Public Information Statement

Current weather conditions updated 8 minutes ago

Overcast
Overcast
50 °F
Feels Like 50 °F
N
24
Wind Variable Wind from SE
Gusts 36 mph
Sunrise 6:28 AM
Sunset 8:16 PM
Moon Waning Crescent

Today is forecast to be Much Cooler than yesterday. Rain tonight.

Pressure 29.85 in
Visibility 10.0 miles
Clouds Scattered Clouds 5500 ft
Overcast 7500 ft
Dew Point 32 °F
Humidity 50%
Rainfall 0.00 in
Snow Depth Not available.
UV 2 out of 16
Pollen 8.70 out of 12
Air Quality Not available.
Flu Activity Sporadic
METAR KLYV 231555Z AUTO 14021G31KT 10SM SCT055 OVC075 10/00 A2985 RMK AO2

More Conditions Fewer Conditions

Pressure 29.85 in
Visibility 10.0 miles
Clouds Scattered Clouds 5500 ft
Overcast 7500 ft
Dew Point 32 °F
Humidity 50%
Rainfall 0.00 in
Snow Depth Not available.
UV 2 out of 16
Pollen 8.70 out of 12
Air Quality Not available.
Flu Activity Sporadic
METAR KLYV 231555Z AUTO 14021G31KT 10SM SCT055 OVC075 10/00 A2985 RMK AO2

More Conditions Fewer Conditions

10-Day Weather Forecast

Almanac

Astronomy

Apr. 23, 2014 Rise Set
Actual Time 6:28 AM CDT 8:16 PM CDT
Civil Twilight 5:57 AM CDT 8:47 PM CDT
Nautical Twilight 5:20 AM CDT 9:24 PM CDT
Astronomical Twilight 4:39 AM CDT 10:05 PM CDT
Moon 3:12 AM CDT 2:15 PM CDT
Length of Visible Light 14h 49m
Length of Day
13h 48m
Tomorrow will be 2m 44s longer.
Waning Crescent, 35% of the Moon is Illuminated
Today
Waning Crescent
Apr 29
New
May 6
First Quarter
May 14
Full
May 21
Last Quarter

Today's Extremes

State Highs State Lows

Community

  • spring flowers
    spring flowers
  • Earth Day Spectrum Ove' Blue
    Earth Day Spectrum Ove' Blue
  • BARN B&W
    BARN B&W
  • April Sunset
    April Sunset
  • Waiting..
    Waiting..

WunderPhotos

Upload Photos

1,704,319 photos uploaded!

Nearby

Snow Depth

Station Depth Elevation
No new snow has been reported.

Coastal Water Temperatures

Place Temperature
No Stations Reporting

Earthquake Activity

City Distance Mag. Time & Date
No recent earthquake activity has been reported nearby.
Minimum magnitude displayed is 2.5.

Nearby Weather Stations

Station Location Temp. Windchill Dew Point Humidity Wind Precip. Elev Updated Type
Luverne, MN, Luverne, MN 48.7 °F 46 °F 28 °F 45% ESE  at  6.0 mph 0.00 in / hr 1417 ft 10:55 AM CDT Normal
Bremer Pond, Hardwick, MN 47.3 °F 44 °F 34 °F 61% ESE  at  7.0 mph 0.00 in / hr 1486 ft 10:59 AM CDT Normal
MesoWest WORTHI , Worthington, MN 45 °F 45 °F - - North  at  - 0.00 in / hr 1556 ft 9:35 AM CDT MADIS

Show More Stations Show Fewer Stations

What do you think?

We're not finished. Please let us know what you like, what you don't like, and what you are still missing.